Time;durP1;ratioP1;P1;durP2;ratioP2;P2;SDS_P1;SDS_P2;PMS_P1;PMS_P2;Temp;Humidity;BMP_temperature;BMP_pressure;BME280_temperature;BME280_humidity;BME280_pressure;Samples;Min_cycle;Max_cycle;Signal;HPM_P1;HPM_P2
2022/06/08 00:00:15;;;;;;;2.40;2.30;;;24.70;49.20;;;;;;5052440;28;20541;-78
2022/06/08 00:02:45;;;;;;;2.90;2.70;;;24.70;49.10;;;;;;5052263;28;20490;-81
2022/06/08 00:05:13;;;;;;;2.47;2.37;;;24.70;49.20;;;;;;5052469;28;20417;-79
2022/06/08 00:07:41;;;;;;;2.70;2.40;;;24.60;49.60;;;;;;5052394;28;20422;-79
2022/06/08 00:10:10;;;;;;;2.70;2.60;;;24.60;49.10;;;;;;5052333;28;20530;-79
2022/06/08 00:12:38;;;;;;;2.30;2.20;;;24.70;49.10;;;;;;5052358;28;21052;-79
2022/06/08 00:15:07;;;;;;;2.30;2.20;;;24.60;49.00;;;;;;5052032;28;20478;-78
2022/06/08 00:17:34;;;;;;;2.33;2.23;;;24.70;49.20;;;;;;5052390;28;20496;-79
2022/06/08 00:20:04;;;;;;;2.27;2.17;;;24.70;48.90;;;;;;5052492;28;20529;-79
2022/06/08 00:22:32;;;;;;;2.33;2.23;;;24.60;49.00;;;;;;5052113;28;20474;-79
2022/06/08 00:25:00;;;;;;;3.13;2.20;;;24.60;49.00;;;;;;5051971;28;20512;-79
2022/06/08 00:27:28;;;;;;;2.63;2.53;;;24.60;49.00;;;;;;5052320;28;20521;-79
2022/06/08 00:29:56;;;;;;;2.50;2.40;;;24.60;49.00;;;;;;5051595;28;20512;-78
2022/06/08 00:32:24;;;;;;;2.43;2.33;;;24.60;49.10;;;;;;5052332;28;20524;-79
2022/06/08 00:34:52;;;;;;;2.50;2.40;;;24.60;49.10;;;;;;5051812;28;20448;-79
2022/06/08 00:37:23;;;;;;;2.03;1.93;;;24.60;49.00;;;;;;5051993;28;20509;-79
2022/06/08 00:39:51;;;;;;;2.30;2.20;;;24.60;49.20;;;;;;5052088;28;20443;-78
2022/06/08 00:42:20;;;;;;;1.97;1.90;;;24.50;49.00;;;;;;5051487;28;20445;-76
2022/06/08 00:44:50;;;;;;;2.60;2.40;;;24.50;49.00;;;;;;5051884;28;20450;-78
2022/06/08 00:47:21;;;;;;;2.37;2.27;;;24.50;49.00;;;;;;5051750;28;20482;-79
2022/06/08 00:49:50;;;;;;;2.30;2.20;;;24.60;49.20;;;;;;5051703;28;20537;-79
2022/06/08 00:52:18;;;;;;;2.43;2.33;;;24.60;49.00;;;;;;5051530;28;20490;-79
2022/06/08 00:54:49;;;;;;;2.20;2.10;;;24.50;48.90;;;;;;5051609;28;20860;-79
2022/06/08 00:57:19;;;;;;;2.00;1.90;;;24.50;48.90;;;;;;5051615;28;20454;-79
2022/06/08 00:59:50;;;;;;;2.47;2.37;;;24.50;49.00;;;;;;5051894;28;20442;-80
2022/06/08 01:02:18;;;;;;;2.10;2.00;;;24.50;49.00;;;;;;5051451;28;20511;-79
2022/06/08 01:04:46;;;;;;;2.27;2.17;;;24.50;49.00;;;;;;5051425;28;20414;-81
2022/06/08 01:07:17;;;;;;;2.40;2.30;;;24.50;48.90;;;;;;5051170;28;20507;-79
2022/06/08 01:09:45;;;;;;;2.40;2.30;;;24.50;49.10;;;;;;5051697;28;20456;-79
2022/06/08 01:12:16;;;;;;;2.17;2.07;;;24.50;49.00;;;;;;5051317;28;20525;-79
2022/06/08 01:14:44;;;;;;;2.43;2.33;;;24.50;49.00;;;;;;5051641;28;20478;-79
2022/06/08 01:17:14;;;;;;;2.50;2.40;;;24.50;48.90;;;;;;5051397;28;20512;-79
2022/06/08 01:23:24;;;;;;;2.40;2.30;;;24.50;49.00;;;;;;5051139;28;20752;-79
2022/06/08 01:26:03;;;;;;;2.40;2.20;;;24.40;49.00;;;;;;5051346;28;20517;-79
2022/06/08 01:28:35;;;;;;;2.10;2.00;;;24.50;49.00;;;;;;5051523;28;20438;-79
2022/06/08 01:31:06;;;;;;;2.33;2.23;;;24.40;49.00;;;;;;5052088;28;20545;-79
2022/06/08 01:33:53;;;;;;;2.10;2.00;;;24.40;48.80;;;;;;5051351;28;20423;-80
2022/06/08 01:36:38;;;;;;;2.37;2.27;;;24.40;49.00;;;;;;5051530;28;20951;-78
2022/06/08 01:39:09;;;;;;;2.40;2.30;;;24.40;48.90;;;;;;5051923;28;20443;-78
2022/06/08 01:41:49;;;;;;;2.43;2.33;;;24.40;48.80;;;;;;5051924;28;20443;-81
2022/06/08 01:44:23;;;;;;;2.13;2.03;;;24.40;48.90;;;;;;5051818;28;20425;-80
2022/06/08 01:46:55;;;;;;;2.27;2.17;;;24.40;48.80;;;;;;5051602;28;20416;-80
2022/06/08 01:49:25;;;;;;;2.53;2.33;;;24.40;48.80;;;;;;5051417;28;20441;-79
2022/06/08 01:52:12;;;;;;;2.93;2.30;;;24.40;48.80;;;;;;5051252;28;20528;-79
2022/06/08 01:54:48;;;;;;;2.30;2.20;;;24.40;48.80;;;;;;5051334;28;20421;-78
2022/06/08 01:57:24;;;;;;;2.47;2.37;;;24.40;48.80;;;;;;5051345;28;20431;-79
2022/06/08 01:59:55;;;;;;;2.90;2.10;;;24.40;48.80;;;;;;5051566;28;20535;-79
2022/06/08 02:02:26;;;;;;;2.53;2.43;;;24.40;48.80;;;;;;5051077;28;20531;-79
2022/06/08 02:04:58;;;;;;;4.43;2.27;;;24.50;48.70;;;;;;5051140;28;20447;-79
2022/06/08 02:07:30;;;;;;;2.57;2.37;;;24.40;48.70;;;;;;5051335;28;20434;-78
2022/06/08 02:10:03;;;;;;;2.13;2.03;;;24.40;48.80;;;;;;5051192;28;20441;-79
2022/06/08 02:12:31;;;;;;;2.20;2.10;;;24.40;48.70;;;;;;5051037;28;20445;-79
2022/06/08 02:15:02;;;;;;;2.13;2.03;;;24.40;48.70;;;;;;5051178;28;20423;-79
2022/06/08 02:17:32;;;;;;;2.27;2.17;;;24.40;48.70;;;;;;5053628;28;20444;-78
2022/06/08 02:20:03;;;;;;;2.40;2.30;;;24.40;48.80;;;;;;5055017;28;20526;-78
2022/06/08 02:22:32;;;;;;;2.23;2.03;;;24.40;48.70;;;;;;5054712;28;20450;-79
2022/06/08 02:25:06;;;;;;;2.50;2.40;;;24.40;48.50;;;;;;5054696;28;20439;-78
2022/06/08 02:27:37;;;;;;;2.70;2.60;;;24.40;48.70;;;;;;5054705;28;20434;-79
2022/06/08 02:30:07;;;;;;;2.27;2.17;;;24.40;48.80;;;;;;5054396;28;20561;-78
2022/06/08 02:35:24;;;;;;;2.50;2.30;;;24.40;48.50;;;;;;5057065;28;20522;-79
2022/06/08 02:37:54;;;;;;;2.80;2.60;;;24.40;48.70;;;;;;5056756;28;20417;-79
2022/06/08 02:40:25;;;;;;;2.37;2.27;;;24.40;48.70;;;;;;5057575;28;20420;-79
2022/06/08 02:42:55;;;;;;;2.30;2.20;;;24.40;48.60;;;;;;5057330;28;20557;-79
2022/06/08 02:45:26;;;;;;;2.13;2.00;;;24.40;48.70;;;;;;5058020;28;21017;-79
2022/06/08 02:47:56;;;;;;;2.53;2.40;;;24.40;48.50;;;;;;5057420;28;20436;-79
2022/06/08 02:50:25;;;;;;;2.43;2.30;;;24.40;48.40;;;;;;5057100;28;20447;-79
2022/06/08 02:52:54;;;;;;;2.23;2.13;;;24.40;48.40;;;;;;5057385;28;20455;-80
2022/06/08 02:55:26;;;;;;;2.13;2.03;;;24.40;48.50;;;;;;5057563;28;20413;-79
2022/06/08 02:57:56;;;;;;;2.40;2.30;;;24.40;48.60;;;;;;5057808;28;20417;-79
2022/06/08 03:00:26;;;;;;;2.40;2.30;;;24.40;48.60;;;;;;5057145;28;20514;-79
2022/06/08 03:02:56;;;;;;;2.40;2.30;;;24.40;48.50;;;;;;5056861;28;20459;-79
2022/06/08 03:05:25;;;;;;;2.27;2.17;;;24.40;48.50;;;;;;5057100;28;20432;-79
2022/06/08 03:07:55;;;;;;;2.23;2.13;;;24.40;48.60;;;;;;5055994;28;20413;-81
2022/06/08 03:10:25;;;;;;;2.10;2.00;;;24.40;48.50;;;;;;5056597;28;20462;-78
2022/06/08 03:12:54;;;;;;;2.37;2.27;;;24.40;48.50;;;;;;5056194;28;20466;-81
2022/06/08 03:15:23;;;;;;;2.70;2.50;;;24.40;48.50;;;;;;5056420;28;20446;-79
2022/06/08 03:17:51;;;;;;;3.13;2.30;;;24.40;48.50;;;;;;5056634;28;20480;-79
2022/06/08 03:20:20;;;;;;;2.40;2.30;;;24.30;48.40;;;;;;5056757;28;20446;-79
2022/06/08 03:22:48;;;;;;;2.30;2.20;;;24.40;48.50;;;;;;5056581;28;20830;-79
2022/06/08 03:25:16;;;;;;;2.50;2.40;;;24.40;48.50;;;;;;5055567;28;20454;-79
2022/06/08 03:27:46;;;;;;;2.37;2.27;;;24.30;48.40;;;;;;5054090;28;20448;-79
2022/06/08 03:30:14;;;;;;;2.30;2.20;;;24.30;48.60;;;;;;5054859;28;20473;-79
2022/06/08 03:32:42;;;;;;;2.20;2.10;;;24.30;48.60;;;;;;5054807;28;20479;-79
2022/06/08 03:35:10;;;;;;;2.00;1.90;;;24.30;48.40;;;;;;5055893;28;20489;-79
2022/06/08 03:37:38;;;;;;;1.90;1.80;;;24.30;48.60;;;;;;5056658;28;20444;-79
2022/06/08 03:40:07;;;;;;;2.40;2.30;;;24.30;48.50;;;;;;5056063;28;20408;-79
2022/06/08 03:42:35;;;;;;;2.20;2.10;;;24.30;48.50;;;;;;5056066;28;20498;-79
2022/06/08 03:45:05;;;;;;;2.33;2.23;;;24.30;48.50;;;;;;5054384;28;20454;-78
2022/06/08 03:47:36;;;;;;;2.17;2.07;;;24.30;48.50;;;;;;5054126;28;20447;-78
2022/06/08 03:50:07;;;;;;;2.37;2.27;;;24.30;48.50;;;;;;5053114;28;20498;-79
2022/06/08 03:52:37;;;;;;;2.30;2.20;;;24.30;48.40;;;;;;5057587;28;20535;-79
2022/06/08 03:55:06;;;;;;;2.00;1.90;;;24.30;48.30;;;;;;5071168;28;20405;-81
2022/06/08 03:57:35;;;;;;;2.53;2.40;;;24.30;48.50;;;;;;5058032;28;20428;-79
2022/06/08 04:00:05;;;;;;;2.30;2.20;;;24.30;48.50;;;;;;5054122;28;20437;-77
2022/06/08 04:02:33;;;;;;;2.13;2.03;;;24.30;48.50;;;;;;5053792;28;20425;-78
2022/06/08 04:05:01;;;;;;;2.33;2.23;;;24.30;48.40;;;;;;5053890;28;20447;-79
2022/06/08 04:07:29;;;;;;;2.50;2.40;;;24.30;48.30;;;;;;5053438;28;20479;-78
2022/06/08 04:09:57;;;;;;;2.13;2.03;;;24.30;48.40;;;;;;5055049;28;20431;-78
2022/06/08 04:12:25;;;;;;;2.33;2.23;;;24.30;48.30;;;;;;5057682;28;20882;-77
2022/06/08 04:14:53;;;;;;;2.80;2.60;;;24.30;48.30;;;;;;5053960;28;20537;-77
2022/06/08 04:17:22;;;;;;;2.40;2.30;;;24.30;48.40;;;;;;5054335;28;20440;-78
2022/06/08 04:19:50;;;;;;;1.90;1.80;;;24.30;48.40;;;;;;5053581;28;20452;-79
2022/06/08 04:22:19;;;;;;;2.30;2.10;;;24.30;48.40;;;;;;5053640;28;20435;-77
2022/06/08 04:24:47;;;;;;;2.30;2.20;;;24.30;48.30;;;;;;5053022;28;20474;-77
2022/06/08 04:27:15;;;;;;;2.00;1.90;;;24.30;48.30;;;;;;5053618;28;20433;-78
2022/06/08 04:29:43;;;;;;;2.10;2.00;;;24.30;48.30;;;;;;5053415;28;20462;-79
2022/06/08 04:32:11;;;;;;;2.30;2.20;;;24.40;48.40;;;;;;5053384;28;20532;-77
2022/06/08 04:34:41;;;;;;;2.30;2.20;;;24.40;48.20;;;;;;5053462;28;20422;-81
2022/06/08 04:37:11;;;;;;;2.50;2.03;;;24.40;48.40;;;;;;5052860;28;20508;-78
2022/06/08 04:39:39;;;;;;;2.13;2.00;;;24.40;48.20;;;;;;5052955;28;20525;-78
2022/06/08 04:42:14;;;;;;;2.20;2.10;;;24.40;48.80;;;;;;5053409;28;20453;-78
2022/06/08 04:44:42;;;;;;;2.50;2.40;;;24.40;48.30;;;;;;5052977;28;20501;-77
2022/06/08 04:47:10;;;;;;;2.10;2.00;;;24.40;48.20;;;;;;5053074;28;20480;-78
2022/06/08 04:49:38;;;;;;;2.30;2.20;;;24.50;48.20;;;;;;5053313;28;20454;-78
2022/06/08 04:52:08;;;;;;;2.60;2.50;;;24.50;48.00;;;;;;5052040;28;20537;-78
2022/06/08 04:54:36;;;;;;;2.00;1.90;;;24.40;48.00;;;;;;5052508;28;21002;-79
2022/06/08 04:57:10;;;;;;;2.20;2.10;;;24.50;48.10;;;;;;5051564;28;20425;-78
2022/06/08 04:59:39;;;;;;;2.00;1.90;;;24.50;47.90;;;;;;5051730;28;21003;-79
2022/06/08 05:02:07;;;;;;;2.30;2.20;;;24.50;48.00;;;;;;5051429;28;20489;-78
2022/06/08 05:04:35;;;;;;;2.27;2.17;;;24.40;48.00;;;;;;5051671;28;20522;-78
2022/06/08 05:07:03;;;;;;;1.90;1.80;;;24.50;47.90;;;;;;5051348;28;20511;-78
2022/06/08 05:09:33;;;;;;;2.50;2.30;;;24.50;47.80;;;;;;5051415;28;20531;-78
2022/06/08 05:12:01;;;;;;;2.70;2.50;;;24.50;48.10;;;;;;5051081;28;20557;-78
2022/06/08 05:14:30;;;;;;;2.30;2.20;;;24.50;47.80;;;;;;5051381;28;20446;-78
2022/06/08 05:16:58;;;;;;;2.30;2.20;;;24.50;47.90;;;;;;5051300;28;20516;-78
2022/06/08 05:19:26;;;;;;;2.57;2.47;;;24.50;47.80;;;;;;5051395;28;20453;-78
2022/06/08 05:21:54;;;;;;;2.70;2.10;;;24.60;47.90;;;;;;5051198;28;20468;-78
2022/06/08 05:24:22;;;;;;;2.10;2.00;;;24.60;47.90;;;;;;5051223;28;20421;-75
2022/06/08 05:26:52;;;;;;;2.07;1.97;;;24.60;47.90;;;;;;5051459;28;20413;-78
2022/06/08 05:29:20;;;;;;;2.50;2.30;;;24.60;47.80;;;;;;5051360;28;20448;-79
2022/06/08 05:31:48;;;;;;;2.40;2.30;;;24.60;47.40;;;;;;5050922;28;20556;-80
2022/06/08 05:34:15;;;;;;;2.53;2.33;;;24.60;47.90;;;;;;5051238;28;20911;-79
2022/06/08 05:36:43;;;;;;;2.50;2.40;;;24.60;47.80;;;;;;5051043;28;20492;-79
2022/06/08 05:39:11;;;;;;;2.50;2.30;;;24.60;47.70;;;;;;5051204;28;20448;-78
2022/06/08 05:41:39;;;;;;;2.50;2.40;;;24.60;47.80;;;;;;5051593;28;20558;-79
2022/06/08 05:44:11;;;;;;;2.13;2.03;;;24.70;47.80;;;;;;5051163;28;20452;-79
2022/06/08 05:46:42;;;;;;;2.33;2.23;;;24.60;47.60;;;;;;5051219;28;20508;-78
2022/06/08 05:49:10;;;;;;;2.37;2.27;;;24.60;47.80;;;;;;5051433;28;20446;-77
2022/06/08 05:51:38;;;;;;;2.60;2.40;;;24.60;47.60;;;;;;5052287;28;20470;-76
2022/06/08 05:54:06;;;;;;;2.67;2.50;;;24.60;47.80;;;;;;5054798;28;20513;-78
2022/06/08 05:56:35;;;;;;;2.23;2.13;;;24.60;47.80;;;;;;5054511;28;21047;-77
2022/06/08 05:59:03;;;;;;;2.50;2.40;;;24.70;47.90;;;;;;5054828;28;20541;-78
2022/06/08 06:01:33;;;;;;;2.17;2.07;;;24.70;48.20;;;;;;5054725;28;20497;-78
2022/06/08 06:04:03;;;;;;;2.33;2.23;;;24.70;47.80;;;;;;5054854;28;20482;-78
2022/06/08 06:06:31;;;;;;;2.30;2.20;;;24.70;47.60;;;;;;5054488;28;20506;-79
2022/06/08 06:09:00;;;;;;;2.10;2.00;;;24.70;47.60;;;;;;5054528;28;20508;-79
2022/06/08 06:11:28;;;;;;;2.23;2.13;;;24.70;47.60;;;;;;5054372;28;20472;-79
2022/06/08 06:13:56;;;;;;;2.23;2.13;;;24.80;47.60;;;;;;5054705;28;20550;-79
2022/06/08 06:16:25;;;;;;;2.37;2.27;;;24.90;47.40;;;;;;5054623;28;20452;-79
2022/06/08 06:18:54;;;;;;;2.63;2.43;;;24.90;47.40;;;;;;5054029;28;20426;-79
2022/06/08 06:21:25;;;;;;;3.77;2.50;;;24.90;47.30;;;;;;5054569;28;20545;-77
2022/06/08 06:23:53;;;;;;;2.60;2.50;;;25.00;47.30;;;;;;5054397;28;20443;-79
2022/06/08 06:26:21;;;;;;;2.80;2.70;;;25.00;47.40;;;;;;5054330;28;20455;-79
2022/06/08 06:28:49;;;;;;;2.90;2.70;;;25.00;47.10;;;;;;5054817;28;20449;-79
2022/06/08 06:31:19;;;;;;;2.40;2.20;;;25.00;47.10;;;;;;5054827;28;20449;-78
2022/06/08 06:33:47;;;;;;;2.10;2.00;;;25.00;47.10;;;;;;5054931;28;20534;-79
2022/06/08 06:36:16;;;;;;;2.60;2.50;;;25.00;46.90;;;;;;5055140;28;20534;-78
2022/06/08 06:38:44;;;;;;;2.50;2.40;;;25.00;47.10;;;;;;5054990;28;20529;-78
2022/06/08 06:41:13;;;;;;;2.30;2.20;;;25.10;47.00;;;;;;5054822;28;20875;-78
2022/06/08 06:43:41;;;;;;;2.53;2.43;;;25.10;47.00;;;;;;5054843;28;20423;-80
2022/06/08 06:46:09;;;;;;;2.50;2.40;;;25.10;47.00;;;;;;5054991;28;20442;-80
2022/06/08 06:48:38;;;;;;;2.53;2.43;;;25.10;46.80;;;;;;5054696;28;20512;-79
2022/06/08 06:51:06;;;;;;;2.33;2.23;;;25.20;47.00;;;;;;5054997;28;21060;-78
2022/06/08 06:53:36;;;;;;;2.33;2.23;;;25.20;46.90;;;;;;5054732;28;20814;-79
2022/06/08 06:56:03;;;;;;;2.57;2.30;;;25.20;46.80;;;;;;5054866;28;20449;-78
2022/06/08 06:58:31;;;;;;;2.50;2.40;;;25.20;46.80;;;;;;5054363;28;20413;-78
2022/06/08 07:00:59;;;;;;;2.40;2.30;;;25.20;46.90;;;;;;5054350;28;20433;-78
2022/06/08 07:03:27;;;;;;;2.30;2.20;;;25.20;46.80;;;;;;5054197;28;20438;-78
2022/06/08 07:05:55;;;;;;;2.57;2.37;;;25.20;46.90;;;;;;5054547;28;20945;-77
2022/06/08 07:08:23;;;;;;;2.90;2.73;;;25.20;46.70;;;;;;5054240;28;20514;-78
2022/06/08 07:13:34;;;;;;;2.90;2.80;;;25.20;46.60;;;;;;5053090;28;20474;-77
2022/06/08 07:16:02;;;;;;;2.50;2.40;;;25.30;46.70;;;;;;5053835;28;20417;-78
2022/06/08 07:18:30;;;;;;;2.27;2.17;;;25.30;46.70;;;;;;5054071;28;20483;-78
2022/06/08 07:20:58;;;;;;;2.30;2.20;;;25.30;46.70;;;;;;5054122;28;20540;-79
2022/06/08 07:23:25;;;;;;;2.73;2.63;;;25.30;46.50;;;;;;5053886;28;20445;-77
2022/06/08 07:25:54;;;;;;;2.27;2.17;;;25.30;46.50;;;;;;5054076;28;20512;-78
2022/06/08 07:28:23;;;;;;;2.40;2.30;;;25.40;46.60;;;;;;5053846;28;20438;-79
2022/06/08 07:30:52;;;;;;;2.63;2.53;;;25.40;46.60;;;;;;5053604;28;20450;-80
2022/06/08 07:33:20;;;;;;;2.50;2.40;;;25.40;46.50;;;;;;5053805;28;20474;-79
2022/06/08 07:35:48;;;;;;;2.60;2.50;;;25.50;46.50;;;;;;5053846;28;20435;-78
2022/06/08 07:38:20;;;;;;;2.63;2.43;;;25.60;46.40;;;;;;5053895;28;20942;-78
2022/06/08 07:40:48;;;;;;;2.53;2.43;;;25.50;46.30;;;;;;5054181;28;20443;-79
2022/06/08 07:43:17;;;;;;;2.77;2.60;;;25.60;46.20;;;;;;5053688;28;20442;-79
2022/06/08 07:45:45;;;;;;;2.33;2.23;;;25.70;46.20;;;;;;5053806;28;20512;-79
2022/06/08 07:50:58;;;;;;;2.60;2.50;;;25.70;46.20;;;;;;5053455;28;20454;-79
2022/06/08 07:53:26;;;;;;;2.90;2.70;;;25.80;45.80;;;;;;5053461;28;20478;-78
2022/06/08 07:55:54;;;;;;;2.60;2.50;;;25.80;45.90;;;;;;5053483;28;20934;-78
2022/06/08 07:58:23;;;;;;;2.87;2.73;;;25.90;45.80;;;;;;5053643;28;20438;-78
2022/06/08 08:00:50;;;;;;;2.50;2.40;;;25.90;45.60;;;;;;5053305;28;20438;-80
2022/06/08 08:03:18;;;;;;;2.40;2.30;;;25.90;45.60;;;;;;5053156;28;20441;-78
2022/06/08 08:05:47;;;;;;;2.63;2.53;;;25.90;45.60;;;;;;5053485;28;20434;-77
2022/06/08 08:08:15;;;;;;;2.40;2.30;;;25.90;45.60;;;;;;5053512;28;20435;-78
2022/06/08 08:10:43;;;;;;;2.37;2.27;;;26.00;45.60;;;;;;5052841;28;20859;-77
2022/06/08 08:13:10;;;;;;;3.13;2.93;;;26.00;45.70;;;;;;5053264;28;20470;-78
2022/06/08 08:15:40;;;;;;;2.37;2.23;;;26.00;45.60;;;;;;5052830;28;20534;-78
2022/06/08 08:18:08;;;;;;;2.40;2.30;;;26.00;45.60;;;;;;5053477;28;20431;-78
2022/06/08 08:20:36;;;;;;;2.40;2.30;;;26.00;45.60;;;;;;5052854;28;20445;-78
2022/06/08 08:23:04;;;;;;;2.90;2.80;;;26.10;45.60;;;;;;5053179;28;20513;-78
2022/06/08 08:25:32;;;;;;;2.50;2.40;;;26.10;45.60;;;;;;5052803;28;20457;-78
2022/06/08 08:28:00;;;;;;;2.40;2.30;;;26.20;45.60;;;;;;5053011;28;20442;-77
2022/06/08 08:30:29;;;;;;;2.33;2.23;;;26.20;45.60;;;;;;5052594;28;20438;-78
2022/06/08 08:32:58;;;;;;;3.00;2.70;;;26.30;45.60;;;;;;5052423;28;20483;-78
2022/06/08 08:35:25;;;;;;;2.80;2.70;;;26.30;45.40;;;;;;5052842;28;20445;-80
2022/06/08 08:37:54;;;;;;;2.70;2.60;;;26.40;45.30;;;;;;5053151;28;20870;-78
2022/06/08 08:40:38;;;;;;;2.37;2.27;;;26.40;45.30;;;;;;5052925;28;20506;-79
2022/06/08 08:43:09;;;;;;;2.20;2.10;;;26.50;45.30;;;;;;5052194;28;20453;-78
2022/06/08 08:45:43;;;;;;;2.73;2.63;;;26.40;45.20;;;;;;5051960;28;20447;-79
2022/06/08 08:48:16;;;;;;;2.37;2.27;;;26.50;45.20;;;;;;5051942;28;20481;-79
2022/06/08 08:50:47;;;;;;;2.60;2.50;;;26.40;45.10;;;;;;5051669;28;20447;-79
2022/06/08 08:53:21;;;;;;;2.50;2.40;;;26.40;45.20;;;;;;5051793;28;20467;-79
2022/06/08 08:55:49;;;;;;;2.70;2.60;;;26.50;45.30;;;;;;5051646;28;20453;-79
2022/06/08 08:58:18;;;;;;;2.43;2.33;;;26.50;45.20;;;;;;5051846;28;20443;-78
2022/06/08 09:00:50;;;;;;;2.67;2.57;;;26.60;45.10;;;;;;5051523;28;20449;-79
2022/06/08 09:03:22;;;;;;;2.40;2.30;;;26.60;45.00;;;;;;5051694;28;20447;-79
2022/06/08 09:05:51;;;;;;;2.97;2.87;;;26.60;45.10;;;;;;5051415;28;20529;-79
2022/06/08 09:08:20;;;;;;;5.00;2.50;;;26.60;45.10;;;;;;5051861;28;20442;-78
2022/06/08 09:10:50;;;;;;;2.53;2.43;;;26.60;45.00;;;;;;5051860;28;20472;-78
2022/06/08 09:13:21;;;;;;;3.00;2.80;;;26.70;45.00;;;;;;5051623;28;20474;-79
2022/06/08 09:15:50;;;;;;;3.00;2.80;;;26.80;45.00;;;;;;5051547;28;20443;-79
2022/06/08 09:18:35;;;;;;;3.20;3.00;;;26.70;44.80;;;;;;5051750;28;20452;-79
2022/06/08 09:21:24;;;;;;;2.50;2.40;;;26.80;44.80;;;;;;5051443;28;20493;-79
2022/06/08 09:23:52;;;;;;;2.67;2.47;;;26.80;44.80;;;;;;5051502;28;20510;-79
2022/06/08 09:26:32;;;;;;;2.57;2.47;;;26.90;44.80;;;;;;5052463;28;20454;-79
2022/06/08 09:29:06;;;;;;;2.80;2.60;;;27.00;44.80;;;;;;5056235;28;20599;-79
2022/06/08 09:31:35;;;;;;;2.67;2.57;;;27.00;44.60;;;;;;5055400;28;20552;-80
2022/06/08 09:34:15;;;;;;;2.50;2.40;;;27.10;44.60;;;;;;5055378;28;20478;-79
2022/06/08 09:36:43;;;;;;;2.80;2.70;;;27.20;44.30;;;;;;5055446;28;20797;-79
2022/06/08 09:39:12;;;;;;;2.63;2.43;;;27.30;44.40;;;;;;5055044;28;20441;-79
2022/06/08 09:41:43;;;;;;;2.70;2.60;;;27.40;44.10;;;;;;5055236;28;20460;-79
2022/06/08 09:44:22;;;;;;;2.73;2.53;;;27.30;43.80;;;;;;5055324;28;20442;-79
2022/06/08 09:52:49;;;;;;;2.60;2.50;;;27.20;44.00;;;;;;5054857;28;20995;-78
2022/06/08 09:55:24;;;;;;;2.70;2.60;;;27.40;44.30;;;;;;5054756;28;20470;-79
2022/06/08 09:58:06;;;;;;;2.20;2.10;;;27.40;44.20;;;;;;5054732;28;20505;-79
2022/06/08 10:00:35;;;;;;;2.43;2.33;;;27.40;43.90;;;;;;5054903;28;20470;-81
2022/06/08 10:03:28;;;;;;;2.67;2.57;;;27.50;43.80;;;;;;5054818;28;20446;-79
2022/06/08 10:06:02;;;;;;;2.90;2.80;;;27.60;43.80;;;;;;5054668;28;20434;-79
2022/06/08 10:08:34;;;;;;;2.40;2.30;;;27.50;43.90;;;;;;5054286;28;20434;-79
2022/06/08 10:11:04;;;;;;;3.10;2.90;;;27.60;43.90;;;;;;5054494;28;20812;-79
2022/06/08 10:13:35;;;;;;;2.30;2.20;;;27.70;43.90;;;;;;5054868;28;20482;-79
2022/06/08 10:16:05;;;;;;;2.90;2.80;;;27.70;43.50;;;;;;5055537;28;20444;-79
2022/06/08 10:18:36;;;;;;;3.07;2.87;;;27.80;43.60;;;;;;5055178;28;20438;-79
2022/06/08 10:21:11;;;;;;;2.60;2.50;;;27.80;43.50;;;;;;5054863;28;20458;-79
2022/06/08 10:23:44;;;;;;;2.00;2.00;;;27.90;43.40;;;;;;5054220;28;20465;-80
2022/06/08 10:26:14;;;;;;;2.17;2.07;;;27.90;43.30;;;;;;5054038;28;20446;-79
2022/06/08 10:28:46;;;;;;;2.20;2.10;;;28.00;43.20;;;;;;5054319;28;20444;-79
2022/06/08 10:31:16;;;;;;;2.43;2.33;;;28.00;43.30;;;;;;5054099;28;20465;-78
2022/06/08 10:33:46;;;;;;;2.43;2.33;;;28.00;43.20;;;;;;5054070;28;20824;-80
2022/06/08 10:36:19;;;;;;;2.43;2.33;;;28.00;43.00;;;;;;5054379;28;20469;-80
2022/06/08 10:38:47;;;;;;;2.37;2.27;;;28.00;43.20;;;;;;5053571;28;20529;-79
2022/06/08 10:44:35;;;;;;;2.10;2.00;;;28.10;43.10;;;;;;5054332;28;20546;-79
2022/06/08 10:47:34;;;;;;;2.40;2.30;;;28.10;42.80;;;;;;5054192;28;20450;-79
2022/06/08 10:50:23;;;;;;;2.40;2.30;;;28.00;42.90;;;;;;5034085;28;20454;-79
2022/06/08 10:52:53;;;;;;;2.10;2.10;;;28.10;43.10;;;;;;5053719;28;20537;-79
2022/06/08 10:55:33;;;;;;;2.20;2.10;;;28.20;43.10;;;;;;5053633;28;20561;-79
2022/06/08 10:58:06;;;;;;;2.30;2.20;;;28.20;42.90;;;;;;5053715;28;20443;-79
2022/06/08 11:01:04;;;;;;;2.30;2.20;;;28.10;42.80;;;;;;5053508;28;20445;-80
2022/06/08 11:03:54;;;;;;;2.27;2.17;;;28.20;43.00;;;;;;5053940;28;20500;-79
2022/06/08 11:06:53;;;;;;;2.50;2.40;;;28.30;42.80;;;;;;5053564;28;20466;-79
2022/06/08 11:09:44;;;;;;;2.40;2.30;;;28.30;42.60;;;;;;5053502;28;20446;-78
2022/06/08 11:12:22;;;;;;;2.37;2.27;;;28.10;42.80;;;;;;5053713;28;20554;-79
2022/06/08 11:14:56;;;;;;;2.53;2.43;;;28.10;43.20;;;;;;5053294;28;20470;-76
2022/06/08 11:17:29;;;;;;;2.30;2.20;;;28.30;43.10;;;;;;5053221;28;20452;-79
2022/06/08 11:19:59;;;;;;;2.10;2.00;;;28.40;42.80;;;;;;5053503;28;20470;-79
2022/06/08 11:22:28;;;;;;;2.07;2.07;;;28.40;42.70;;;;;;5053334;28;20546;-79
2022/06/08 11:24:59;;;;;;;2.07;1.97;;;28.40;42.50;;;;;;5052989;28;20438;-79
2022/06/08 11:27:30;;;;;;;2.40;2.30;;;28.30;42.50;;;;;;5053392;28;20457;-79
2022/06/08 11:29:58;;;;;;;2.27;2.17;;;28.20;42.70;;;;;;5053157;28;20442;-78
2022/06/08 11:32:57;;;;;;;2.50;2.40;;;28.20;42.90;;;;;;5053124;28;20472;-78
2022/06/08 11:35:40;;;;;;;2.27;2.17;;;28.20;43.00;;;;;;5036658;28;20501;-79
2022/06/08 11:38:18;;;;;;;2.13;2.03;;;28.10;43.20;;;;;;5053380;28;20411;-79
2022/06/08 11:40:48;;;;;;;2.10;2.00;;;28.10;43.30;;;;;;5053266;28;20461;-79
2022/06/08 11:43:34;;;;;;;2.37;2.27;;;28.10;43.30;;;;;;5052859;28;20449;-79
2022/06/08 11:46:02;;;;;;;2.27;2.17;;;28.10;43.10;;;;;;5052834;28;20441;-79
2022/06/08 11:48:31;;;;;;;2.40;2.30;;;28.10;43.30;;;;;;5051954;28;20474;-79
2022/06/08 11:50:59;;;;;;;2.17;2.07;;;28.20;43.20;;;;;;5052669;28;20549;-79
2022/06/08 11:53:28;;;;;;;2.10;2.00;;;28.20;43.00;;;;;;5052441;28;20452;-79
2022/06/08 11:56:01;;;;;;;1.90;1.90;;;28.20;43.10;;;;;;5052641;28;20478;-81
2022/06/08 11:58:29;;;;;;;2.10;2.00;;;28.30;43.00;;;;;;5052658;28;20440;-79
2022/06/08 12:00:58;;;;;;;2.10;2.00;;;28.30;42.80;;;;;;5052601;28;20565;-79
2022/06/08 12:03:28;;;;;;;2.13;2.13;;;28.40;42.80;;;;;;5052905;28;20538;-79
2022/06/08 12:06:03;;;;;;;2.00;1.90;;;28.40;42.70;;;;;;5052567;28;20439;-79
2022/06/08 12:08:34;;;;;;;2.00;2.00;;;28.40;42.70;;;;;;5052677;28;20452;-79
2022/06/08 12:11:21;;;;;;;2.40;2.30;;;28.40;42.80;;;;;;5052368;28;20494;-79
2022/06/08 12:13:53;;;;;;;2.07;1.97;;;28.40;42.80;;;;;;5052559;28;20446;-79
2022/06/08 12:16:23;;;;;;;2.17;2.07;;;28.40;42.70;;;;;;5052196;28;20474;-79
2022/06/08 12:18:55;;;;;;;2.10;2.00;;;28.30;42.80;;;;;;5052396;28;20466;-79
2022/06/08 12:21:33;;;;;;;2.30;2.20;;;28.30;42.80;;;;;;5052668;28;20462;-79
2022/06/08 12:24:25;;;;;;;2.40;2.30;;;28.30;42.90;;;;;;5052230;28;20445;-77
2022/06/08 12:27:14;;;;;;;2.30;2.20;;;28.20;42.80;;;;;;5053035;28;20476;-79
2022/06/08 12:29:56;;;;;;;2.00;2.00;;;28.20;43.00;;;;;;5055056;28;20461;-79
2022/06/08 12:32:34;;;;;;;1.93;1.90;;;28.20;43.00;;;;;;5054060;28;20843;-79
2022/06/08 12:35:28;;;;;;;2.20;2.10;;;28.40;43.10;;;;;;5054084;28;20564;-80
2022/06/08 12:38:12;;;;;;;2.00;2.00;;;28.50;42.60;;;;;;5035430;28;20521;-79
2022/06/08 12:40:40;;;;;;;2.20;2.10;;;28.50;42.70;;;;;;5053605;28;20552;-79
2022/06/08 12:43:18;;;;;;;2.40;2.30;;;28.60;42.60;;;;;;5053500;28;20447;-79
2022/06/08 12:46:07;;;;;;;2.27;2.17;;;28.70;42.40;;;;;;5053446;28;20474;-80
2022/06/08 12:48:46;;;;;;;2.20;2.10;;;28.70;42.30;;;;;;5054110;28;20427;-79
2022/06/08 12:51:36;;;;;;;2.30;2.20;;;28.70;42.30;;;;;;5053393;28;20457;-79
2022/06/08 12:54:10;;;;;;;2.30;2.20;;;28.60;42.30;;;;;;5054615;28;20430;-77
2022/06/08 12:56:43;;;;;;;2.27;2.17;;;28.60;42.30;;;;;;5053720;28;20996;-79
2022/06/08 12:59:12;;;;;;;2.30;2.20;;;28.50;42.50;;;;;;5054031;28;20438;-81
2022/06/08 13:01:41;;;;;;;2.40;2.30;;;28.50;42.60;;;;;;5053974;28;20454;-79
2022/06/08 13:04:09;;;;;;;2.07;1.97;;;28.40;42.70;;;;;;5054315;28;20443;-80
2022/06/08 13:06:37;;;;;;;1.97;1.97;;;28.40;42.80;;;;;;5054447;28;20542;-78
2022/06/08 13:09:05;;;;;;;2.10;2.00;;;28.40;42.80;;;;;;5054282;28;20557;-80
2022/06/08 13:11:33;;;;;;;2.10;2.00;;;28.30;42.80;;;;;;5054083;28;20454;-80
2022/06/08 13:14:04;;;;;;;2.20;2.10;;;28.30;42.90;;;;;;5055092;28;20541;-79
2022/06/08 13:16:33;;;;;;;2.00;2.00;;;28.30;43.00;;;;;;5054516;28;20554;-79
2022/06/08 13:19:09;;;;;;;2.90;2.00;;;28.30;43.10;;;;;;5054607;28;20541;-79
2022/06/08 13:21:37;;;;;;;2.70;2.60;;;28.20;43.10;;;;;;5054709;28;20549;-80
2022/06/08 13:24:06;;;;;;;2.33;2.23;;;28.20;43.20;;;;;;5054535;28;20456;-80
2022/06/08 13:26:34;;;;;;;2.30;2.20;;;28.20;43.20;;;;;;5054680;28;20457;-80
2022/06/08 13:29:04;;;;;;;2.17;2.07;;;28.10;43.20;;;;;;5054950;28;20451;-79